Time;durP1;ratioP1;P1;durP2;ratioP2;P2;SDS_P1;SDS_P2;PMS_P1;PMS_P2;Temp;Humidity;BMP_temperature;BMP_pressure;BME280_temperature;BME280_humidity;BME280_pressure;Samples;Min_cycle;Max_cycle;Signal;HPM_P1;HPM_P2
2024/03/23 00:01:11;;;;;;;38.67;24.73;;;4.20;90.00;;;;;;5081858;28;20041;-80
2024/03/23 00:03:37;;;;;;;44.35;26.73;;;4.20;90.00;;;;;;5079641;28;20069;-83
2024/03/23 00:06:04;;;;;;;38.35;25.42;;;4.30;90.10;;;;;;5078874;28;20020;-82
2024/03/23 00:08:31;;;;;;;35.17;22.77;;;4.30;90.10;;;;;;5082129;28;20053;-81
2024/03/23 00:10:57;;;;;;;33.27;22.17;;;4.30;90.10;;;;;;5079762;28;20031;-84
2024/03/23 00:13:24;;;;;;;35.65;23.05;;;4.30;90.10;;;;;;5077004;28;20061;-83
2024/03/23 00:15:51;;;;;;;43.20;25.92;;;4.30;90.20;;;;;;5081903;28;20020;-81
2024/03/23 00:18:23;;;;;;;36.17;22.63;;;4.30;90.20;;;;;;5077978;28;20428;-85
2024/03/23 00:20:51;;;;;;;40.15;25.48;;;4.20;90.20;;;;;;5077258;28;20031;-85
2024/03/23 00:23:18;;;;;;;41.08;22.38;;;4.30;90.40;;;;;;5084683;28;20053;-88
2024/03/23 00:25:44;;;;;;;44.05;24.80;;;4.30;90.40;;;;;;5083181;28;20038;-86
2024/03/23 00:28:11;;;;;;;45.53;27.77;;;4.30;90.50;;;;;;5079020;28;20025;-86
2024/03/23 00:30:38;;;;;;;42.23;25.37;;;4.30;90.50;;;;;;5082508;28;20040;-84
2024/03/23 00:33:05;;;;;;;41.83;26.13;;;4.30;90.40;;;;;;5082835;28;20095;-84
2024/03/23 00:35:32;;;;;;;40.40;26.02;;;4.30;90.60;;;;;;5084361;28;20108;-86
2024/03/23 00:37:58;;;;;;;43.55;27.63;;;4.30;90.70;;;;;;5088198;28;20067;-86
2024/03/23 00:40:25;;;;;;;32.47;22.02;;;4.30;90.90;;;;;;5074545;28;20021;-87
2024/03/23 00:42:52;;;;;;;39.63;25.48;;;4.30;91.00;;;;;;5086070;28;20069;-86
2024/03/23 00:45:18;;;;;;;50.17;27.50;;;4.20;91.30;;;;;;5099113;28;20058;-87
2024/03/23 00:47:45;;;;;;;52.92;29.55;;;4.10;91.70;;;;;;5082407;28;20029;-85
2024/03/23 00:50:12;;;;;;;44.22;26.33;;;4.00;91.90;;;;;;5080063;28;20483;-86
2024/03/23 00:52:38;;;;;;;44.55;27.25;;;4.00;92.20;;;;;;5082458;28;20036;-86
2024/03/23 00:55:03;;;;;;;51.58;27.20;;;4.00;92.40;;;;;;5079395;28;20021;-85
2024/03/23 00:57:29;;;;;;;42.00;26.50;;;4.00;92.70;;;;;;5101758;28;20032;-89
2024/03/23 00:59:55;;;;;;;39.05;24.83;;;4.00;93.00;;;;;;5105072;28;20066;-87
2024/03/23 01:02:21;;;;;;;41.92;25.70;;;3.90;93.10;;;;;;5096760;28;20033;-89
2024/03/23 01:04:46;;;;;;;37.03;24.92;;;3.90;93.50;;;;;;5096455;28;20025;-92
2024/03/23 01:07:12;;;;;;;43.28;26.73;;;3.80;93.70;;;;;;5105935;28;20053;-91
2024/03/23 01:09:38;;;;;;;42.80;27.10;;;3.80;94.00;;;;;;5112806;28;20044;-90
2024/03/23 01:12:05;;;;;;;39.67;25.30;;;3.80;94.20;;;;;;5104049;28;20024;-90
2024/03/23 01:14:31;;;;;;;43.63;28.65;;;3.80;94.30;;;;;;5105719;28;20035;-90
2024/03/23 01:16:56;;;;;;;36.33;25.67;;;3.80;94.50;;;;;;5110145;28;20012;-93
2024/03/23 01:19:22;;;;;;;41.25;26.50;;;3.80;94.80;;;;;;5085861;28;20077;-95
2024/03/23 01:21:49;;;;;;;35.65;26.40;;;3.80;94.90;;;;;;5101216;28;20059;-94
2024/03/23 01:24:15;;;;;;;33.35;20.55;;;3.80;95.00;;;;;;5102441;28;20020;-88
2024/03/23 01:26:41;;;;;;;44.08;27.58;;;3.80;95.20;;;;;;5090163;28;20051;-88
2024/03/23 01:29:07;;;;;;;44.75;28.27;;;3.80;95.40;;;;;;5082144;28;20025;-87
2024/03/23 01:31:32;;;;;;;43.35;25.58;;;3.80;95.50;;;;;;5097513;28;20491;-88
2024/03/23 01:33:58;;;;;;;47.60;27.00;;;3.80;95.60;;;;;;5092073;28;20020;-91
2024/03/23 01:36:24;;;;;;;45.42;27.08;;;3.80;95.70;;;;;;5083169;28;20028;-90
2024/03/23 01:38:51;;;;;;;46.67;29.50;;;3.80;95.80;;;;;;5089597;28;20147;-90
2024/03/23 01:41:17;;;;;;;44.42;28.38;;;3.80;95.90;;;;;;5091632;28;20028;-87
2024/03/23 01:43:43;;;;;;;50.17;28.75;;;3.80;95.90;;;;;;5111144;28;20050;-92
2024/03/23 01:46:09;;;;;;;44.47;24.88;;;3.70;96.20;;;;;;5119922;28;20112;-91
2024/03/23 01:48:35;;;;;;;33.72;20.38;;;3.70;96.40;;;;;;5118252;28;20016;-84
2024/03/23 01:51:01;;;;;;;38.08;26.35;;;3.70;96.50;;;;;;5118212;28;20027;-91
2024/03/23 01:53:26;;;;;;;41.20;27.45;;;3.70;96.70;;;;;;5116419;28;20024;-94
2024/03/23 01:55:53;;;;;;;46.38;30.08;;;3.60;96.70;;;;;;5113949;28;20073;-94
2024/03/23 01:58:18;;;;;;;46.05;27.40;;;3.70;96.90;;;;;;5113049;28;20054;-92
2024/03/23 02:00:44;;;;;;;48.55;29.67;;;3.70;97.10;;;;;;5106016;28;20100;-94
2024/03/23 02:03:26;;;;;;;49.90;28.90;;;3.70;97.20;;;;;;5101513;28;20028;-93
2024/03/23 02:05:54;;;;;;;43.20;23.92;;;3.80;97.40;;;;;;5109433;28;20481;-94
2024/03/23 02:08:21;;;;;;;43.58;27.05;;;3.80;97.40;;;;;;5096098;28;20040;-92
2024/03/23 02:10:49;;;;;;;28.25;16.58;;;3.80;97.60;;;;;;5102422;28;20032;-93
2024/03/23 02:13:15;;;;;;;;;;;3.80;97.70;;;;;;5100875;28;20024;-93
2024/03/23 02:15:41;;;;;;;41.10;25.08;;;3.70;97.60;;;;;;5101081;28;20464;-90
2024/03/23 02:18:10;;;;;;;43.88;25.25;;;3.70;98.10;;;;;;5102018;28;20020;-92
2024/03/23 02:20:37;;;;;;;42.25;25.48;;;3.70;98.30;;;;;;5100983;28;20023;-92
2024/03/23 02:23:05;;;;;;;39.25;26.48;;;3.70;98.50;;;;;;5095251;28;20108;-94
2024/03/23 02:25:32;;;;;;;47.28;27.80;;;3.70;98.60;;;;;;5083829;28;20021;-91
2024/03/23 02:27:58;;;;;;;44.93;26.93;;;3.70;98.70;;;;;;5097742;28;20032;-92
2024/03/23 02:30:25;;;;;;;40.92;27.60;;;3.70;98.70;;;;;;5097708;28;20071;-90
2024/03/23 02:32:53;;;;;;;42.83;25.70;;;3.80;98.80;;;;;;5098825;28;20016;-91
2024/03/23 02:35:19;;;;;;;34.92;23.98;;;3.70;99.00;;;;;;5093095;28;20025;-90
2024/03/23 02:37:48;;;;;;;38.95;22.90;;;3.70;99.00;;;;;;5077875;28;20090;-90
2024/03/23 02:40:15;;;;;;;45.72;25.83;;;3.70;99.20;;;;;;5092237;28;20094;-92
2024/03/23 02:42:41;;;;;;;40.50;23.95;;;3.70;99.30;;;;;;5075274;28;20077;-91
2024/03/23 02:45:07;;;;;;;43.45;26.15;;;3.80;99.30;;;;;;5093299;28;20100;-91
2024/03/23 02:47:32;;;;;;;46.00;25.45;;;3.80;99.40;;;;;;5086441;28;20466;-90
2024/03/23 02:49:58;;;;;;;42.30;25.30;;;3.90;99.40;;;;;;5079019;28;20024;-86
2024/03/23 02:52:24;;;;;;;41.03;26.70;;;3.90;99.40;;;;;;5082183;28;20035;-90
2024/03/23 02:54:50;;;;;;;39.25;24.73;;;3.90;99.40;;;;;;5090005;28;20051;-87
2024/03/23 02:57:15;;;;;;;44.63;28.67;;;4.00;99.30;;;;;;5077260;28;20067;-92
2024/03/23 02:59:41;;;;;;;45.60;27.95;;;4.00;99.20;;;;;;5075267;28;20398;-93
2024/03/23 03:02:07;;;;;;;33.53;20.27;;;4.10;99.20;;;;;;5084182;28;20021;-89
2024/03/23 03:04:33;;;;;;;41.83;22.48;;;4.10;99.00;;;;;;5085279;28;20086;-91
2024/03/23 03:06:59;;;;;;;41.47;27.20;;;4.00;99.10;;;;;;5083857;28;20021;-91
2024/03/23 03:09:25;;;;;;;44.15;24.90;;;4.00;99.30;;;;;;5087592;28;20036;-87
2024/03/23 03:11:51;;;;;;;44.33;29.17;;;3.90;99.40;;;;;;5082363;28;20021;-92
2024/03/23 03:14:17;;;;;;;45.25;26.17;;;3.90;99.70;;;;;;5084205;28;20052;-90
2024/03/23 03:16:42;;;;;;;41.20;25.42;;;3.90;99.90;;;;;;5074870;28;20489;-87
2024/03/23 03:19:10;;;;;;;42.05;27.67;;;3.90;99.90;;;;;;5079453;28;20051;-90
2024/03/23 03:21:36;;;;;;;44.05;27.42;;;3.90;99.90;;;;;;5104595;28;20051;-89
2024/03/23 03:24:02;;;;;;;50.13;24.83;;;3.90;99.90;;;;;;5100643;28;20028;-89
2024/03/23 03:26:27;;;;;;;40.03;21.67;;;3.90;99.90;;;;;;5094674;28;20039;-90
2024/03/23 03:28:53;;;;;;;42.05;26.90;;;3.90;99.90;;;;;;5107525;28;20043;-88
2024/03/23 03:31:19;;;;;;;43.25;26.38;;;3.90;99.90;;;;;;5105561;28;20092;-89
2024/03/23 03:33:45;;;;;;;39.72;27.05;;;3.90;99.90;;;;;;5104045;28;20044;-88
2024/03/23 03:36:11;;;;;;;39.28;24.25;;;3.90;99.90;;;;;;5111884;28;20024;-88
2024/03/23 03:38:38;;;;;;;41.97;26.70;;;3.90;99.90;;;;;;5103980;28;20027;-87
2024/03/23 03:41:06;;;;;;;38.53;23.40;;;4.00;99.90;;;;;;5077876;28;20038;-88
2024/03/23 03:43:31;;;;;;;40.55;23.70;;;4.00;99.90;;;;;;5080466;28;20259;-87
2024/03/23 03:45:59;;;;;;;43.42;27.23;;;3.90;99.90;;;;;;5078792;28;20447;-90
2024/03/23 03:48:25;;;;;;;43.42;27.02;;;3.90;99.90;;;;;;5082581;28;20481;-89
2024/03/23 03:50:51;;;;;;;40.03;25.50;;;3.90;99.90;;;;;;5079597;28;20095;-86
2024/03/23 03:53:17;;;;;;;34.65;19.70;;;3.90;99.90;;;;;;5089712;28;20020;-89
2024/03/23 03:55:43;;;;;;;35.97;20.10;;;3.90;99.90;;;;;;5086912;28;20024;-89
2024/03/23 03:58:08;;;;;;;37.10;25.75;;;3.90;99.90;;;;;;5088770;28;20024;-87
2024/03/23 04:00:35;;;;;;;39.42;23.88;;;3.80;99.90;;;;;;5095269;28;20377;-88
2024/03/23 04:03:01;;;;;;;35.07;23.57;;;3.80;99.90;;;;;;5094096;28;20043;-86
2024/03/23 04:05:27;;;;;;;43.45;25.83;;;3.80;99.90;;;;;;5088021;28;20019;-89
2024/03/23 04:07:53;;;;;;;40.60;23.40;;;3.80;99.90;;;;;;5077535;28;20135;-88
2024/03/23 04:10:20;;;;;;;38.42;26.83;;;3.90;99.90;;;;;;5096030;28;20040;-85
2024/03/23 04:12:47;;;;;;;48.10;27.63;;;3.90;99.90;;;;;;5093226;28;20016;-87
2024/03/23 04:15:13;;;;;;;47.53;26.85;;;3.90;99.90;;;;;;5088700;28;20029;-88
2024/03/23 04:17:39;;;;;;;36.30;21.98;;;4.00;99.90;;;;;;5078801;28;20020;-90
2024/03/23 04:20:10;;;;;;;34.10;21.48;;;4.10;99.90;;;;;;5090532;28;20473;-85
2024/03/23 04:22:37;;;;;;;35.03;24.17;;;4.10;99.90;;;;;;5081347;28;20095;-86
2024/03/23 04:25:06;;;;;;;30.85;20.55;;;4.10;99.90;;;;;;5086344;28;20035;-86
2024/03/23 04:27:35;;;;;;;38.72;22.23;;;4.20;99.90;;;;;;5083483;28;20025;-86
2024/03/23 04:30:01;;;;;;;33.28;23.63;;;4.20;99.90;;;;;;5080647;28;20028;-86
2024/03/23 04:32:27;;;;;;;33.03;21.17;;;4.20;99.90;;;;;;5096254;28;20012;-89
2024/03/23 04:34:54;;;;;;;38.50;23.52;;;4.30;99.90;;;;;;5094875;28;20318;-86
2024/03/23 04:37:23;;;;;;;35.35;21.88;;;4.30;99.90;;;;;;5088761;28;20055;-87
2024/03/23 04:39:49;;;;;;;41.58;24.65;;;4.30;99.90;;;;;;5095635;28;20056;-87
2024/03/23 04:42:17;;;;;;;37.95;21.13;;;4.30;99.90;;;;;;5090839;28;20028;-89
2024/03/23 04:44:44;;;;;;;41.45;24.73;;;4.40;99.90;;;;;;5081406;28;20077;-89
2024/03/23 04:47:09;;;;;;;30.17;17.73;;;4.40;99.90;;;;;;5087062;28;20027;-87
2024/03/23 04:49:36;;;;;;;34.00;24.45;;;4.50;99.90;;;;;;5103641;28;20044;-89
2024/03/23 04:52:04;;;;;;;35.97;23.85;;;4.50;99.90;;;;;;5096294;28;20024;-90
2024/03/23 04:54:30;;;;;;;35.03;22.38;;;4.50;99.90;;;;;;5089745;28;20020;-89
2024/03/23 04:56:56;;;;;;;32.33;20.98;;;4.40;99.90;;;;;;5087838;28;20028;-91
2024/03/23 04:59:22;;;;;;;34.70;22.88;;;4.40;99.90;;;;;;5095046;28;20065;-91
2024/03/23 05:01:51;;;;;;;38.40;21.20;;;4.30;99.90;;;;;;5096346;28;20033;-88
2024/03/23 05:04:16;;;;;;;34.03;19.75;;;4.30;99.90;;;;;;5099563;28;20028;-92
2024/03/23 05:06:42;;;;;;;37.60;24.35;;;4.30;99.90;;;;;;5081152;28;20085;-91
2024/03/23 05:09:11;;;;;;;36.28;23.35;;;4.30;99.90;;;;;;5092594;28;20082;-92
2024/03/23 05:11:38;;;;;;;37.83;22.60;;;4.40;99.90;;;;;;5092498;28;20443;-91
2024/03/23 05:14:04;;;;;;;32.92;20.95;;;4.40;99.90;;;;;;5089986;28;20103;-90
2024/03/23 05:16:30;;;;;;;36.45;23.23;;;4.40;99.90;;;;;;5101961;28;20037;-91
2024/03/23 05:18:55;;;;;;;33.85;23.38;;;4.40;99.90;;;;;;5096728;28;20058;-88
2024/03/23 05:21:21;;;;;;;34.38;24.10;;;4.40;99.90;;;;;;5096217;28;20091;-93
2024/03/23 05:23:47;;;;;;;35.17;22.08;;;4.40;99.90;;;;;;5097824;28;20085;-91
2024/03/23 05:26:16;;;;;;;34.42;21.33;;;4.40;99.90;;;;;;5096904;28;20020;-91
2024/03/23 05:28:42;;;;;;;31.20;19.40;;;4.30;99.90;;;;;;5074313;28;20032;-91
2024/03/23 05:31:08;;;;;;;27.88;19.20;;;4.30;99.90;;;;;;5076089;28;20033;-91
2024/03/23 05:33:40;;;;;;;35.63;23.60;;;4.20;99.90;;;;;;5086927;28;20030;-89
2024/03/23 05:36:11;;;;;;;34.45;19.88;;;4.10;99.90;;;;;;5086064;28;20035;-90
2024/03/23 05:38:37;;;;;;;33.28;21.35;;;4.10;99.90;;;;;;5086537;28;20112;-88
2024/03/23 05:41:02;;;;;;;36.35;23.83;;;4.10;99.90;;;;;;5089312;28;20052;-90
2024/03/23 05:43:28;;;;;;;29.73;19.48;;;4.00;99.90;;;;;;5079801;28;20052;-88
2024/03/23 05:45:54;;;;;;;31.63;20.98;;;4.00;99.90;;;;;;5079956;28;20469;-95
2024/03/23 05:48:20;;;;;;;30.48;19.58;;;4.00;99.90;;;;;;5093409;28;20441;-88
2024/03/23 05:50:47;;;;;;;34.70;22.98;;;4.00;99.90;;;;;;5096542;28;20064;-92
2024/03/23 05:53:13;;;;;;;29.40;18.38;;;4.00;99.90;;;;;;5089303;28;20385;-87
2024/03/23 05:55:38;;;;;;;25.23;18.10;;;4.00;99.90;;;;;;5078957;28;20020;-85
2024/03/23 05:58:06;;;;;;;34.80;23.90;;;4.00;99.90;;;;;;5076580;28;20013;-86
2024/03/23 06:00:32;;;;;;;35.30;19.85;;;3.90;99.90;;;;;;5074299;28;20017;-87
2024/03/23 06:03:01;;;;;;;31.30;21.90;;;4.00;99.90;;;;;;5083946;28;20366;-85
2024/03/23 06:05:27;;;;;;;32.83;23.27;;;4.00;99.90;;;;;;5080775;28;20413;-87
2024/03/23 06:07:53;;;;;;;35.22;21.65;;;4.00;99.90;;;;;;5084819;28;20048;-84
2024/03/23 06:10:22;;;;;;;29.27;20.27;;;4.10;99.90;;;;;;5087082;28;20036;-84
2024/03/23 06:12:50;;;;;;;33.00;21.42;;;4.10;99.90;;;;;;5074383;28;20043;-82
2024/03/23 06:15:16;;;;;;;35.45;23.65;;;4.00;99.90;;;;;;5078431;28;20486;-83
2024/03/23 06:17:41;;;;;;;26.10;19.33;;;4.10;99.90;;;;;;5081675;28;20028;-85
2024/03/23 06:20:08;;;;;;;32.17;22.27;;;4.10;99.90;;;;;;5088399;28;20035;-83
2024/03/23 06:22:33;;;;;;;28.08;20.95;;;4.10;99.90;;;;;;5079357;28;20020;-83
2024/03/23 06:24:59;;;;;;;26.40;19.23;;;4.20;99.90;;;;;;5076476;28;20029;-85
2024/03/23 06:27:25;;;;;;;30.05;20.40;;;4.20;99.90;;;;;;5082855;28;20024;-86
2024/03/23 06:29:54;;;;;;;24.35;17.85;;;4.20;99.90;;;;;;5091262;28;20028;-85
2024/03/23 06:32:20;;;;;;;22.77;15.95;;;4.30;99.90;;;;;;5093842;28;20023;-85
2024/03/23 06:34:46;;;;;;;30.08;18.33;;;4.30;99.90;;;;;;5078106;28;20393;-86
2024/03/23 06:37:13;;;;;;;27.35;19.33;;;4.30;99.90;;;;;;5072605;28;20036;-84
2024/03/23 06:39:39;;;;;;;28.02;20.85;;;4.20;99.90;;;;;;5075437;28;20052;-83
2024/03/23 06:42:05;;;;;;;27.95;17.67;;;4.30;99.90;;;;;;5084712;28;20033;-82
2024/03/23 06:44:31;;;;;;;29.73;19.77;;;4.30;99.90;;;;;;5088278;28;20048;-82
2024/03/23 06:46:57;;;;;;;26.17;18.83;;;4.20;99.90;;;;;;5077470;28;20028;-81
2024/03/23 06:49:23;;;;;;;26.88;18.58;;;4.20;99.90;;;;;;5074985;28;20045;-82
2024/03/23 06:51:49;;;;;;;28.42;21.33;;;4.30;99.90;;;;;;5097920;28;20033;-84
2024/03/23 06:54:18;;;;;;;27.50;17.95;;;4.30;99.90;;;;;;5077580;28;20103;-84
2024/03/23 06:56:46;;;;;;;26.90;21.02;;;4.40;99.90;;;;;;5078307;28;20024;-84
2024/03/23 06:59:12;;;;;;;25.50;16.35;;;4.40;99.90;;;;;;5079941;28;20032;-84
2024/03/23 07:01:38;;;;;;;24.92;16.25;;;4.40;99.90;;;;;;5080123;28;20103;-84
2024/03/23 07:04:04;;;;;;;21.17;15.13;;;4.30;99.90;;;;;;5075880;28;20046;-84
2024/03/23 07:06:31;;;;;;;27.40;19.75;;;4.30;99.90;;;;;;5074169;28;20028;-85
2024/03/23 07:08:56;;;;;;;27.35;18.52;;;4.30;99.90;;;;;;5078230;28;20044;-83
2024/03/23 07:11:23;;;;;;;23.02;17.45;;;4.40;99.90;;;;;;5082974;28;20036;-83
2024/03/23 07:13:55;;;;;;;25.20;15.25;;;4.40;99.90;;;;;;5077457;28;20020;-84
2024/03/23 07:16:22;;;;;;;25.42;17.73;;;4.40;99.90;;;;;;5081767;28;20028;-83
2024/03/23 07:18:50;;;;;;;21.00;14.95;;;4.40;99.90;;;;;;5077470;28;20148;-83
2024/03/23 07:21:16;;;;;;;22.48;15.55;;;4.40;99.90;;;;;;5073923;28;20033;-83
2024/03/23 07:23:45;;;;;;;21.30;12.95;;;4.40;99.90;;;;;;5077121;28;20039;-82
2024/03/23 07:26:11;;;;;;;20.92;15.38;;;4.30;99.90;;;;;;5083168;28;20036;-84
2024/03/23 07:28:38;;;;;;;22.23;14.43;;;4.20;99.90;;;;;;5073389;28;20020;-85
2024/03/23 07:31:11;;;;;;;23.63;17.30;;;4.20;99.90;;;;;;5082834;28;20035;-83
2024/03/23 07:33:41;;;;;;;27.35;17.55;;;4.20;99.90;;;;;;5078609;28;20355;-85
2024/03/23 07:36:07;;;;;;;23.95;17.73;;;4.20;99.90;;;;;;5072883;28;20025;-85
2024/03/23 07:38:33;;;;;;;24.13;18.88;;;4.40;99.90;;;;;;5082594;28;20066;-82
2024/03/23 07:41:06;;;;;;;31.00;19.85;;;4.30;99.90;;;;;;5071008;28;20029;-80
2024/03/23 07:43:32;;;;;;;28.60;17.95;;;4.50;99.90;;;;;;5073114;28;20024;-83
2024/03/23 07:45:59;;;;;;;27.35;18.35;;;4.50;99.90;;;;;;5081385;28;20028;-84
2024/03/23 07:48:25;;;;;;;26.02;16.67;;;4.50;99.90;;;;;;5081422;28;20377;-80
2024/03/23 07:50:59;;;;;;;20.55;16.60;;;4.60;99.90;;;;;;5073765;28;20051;-81
2024/03/23 07:53:28;;;;;;;21.48;14.68;;;4.40;99.90;;;;;;5078969;28;20389;-81
2024/03/23 07:55:59;;;;;;;21.25;16.90;;;4.40;99.90;;;;;;5078955;28;20054;-83
2024/03/23 07:58:26;;;;;;;24.20;15.75;;;4.30;99.90;;;;;;5074632;28;20795;-82
2024/03/23 08:00:53;;;;;;;24.37;18.00;;;4.30;99.90;;;;;;5079438;28;20427;-82
2024/03/23 08:03:19;;;;;;;25.65;17.60;;;4.30;99.90;;;;;;5071260;28;20024;-78
2024/03/23 08:05:45;;;;;;;25.80;17.85;;;4.40;99.90;;;;;;5071498;28;20039;-80
2024/03/23 08:08:11;;;;;;;25.02;16.92;;;4.40;99.90;;;;;;5070039;28;20070;-79
2024/03/23 08:10:47;;;;;;;23.58;16.63;;;4.50;99.90;;;;;;5071449;28;20501;-80
2024/03/23 08:13:13;;;;;;;20.50;11.98;;;4.60;99.90;;;;;;5071515;28;20020;-81
2024/03/23 08:15:39;;;;;;;26.48;15.88;;;4.40;99.90;;;;;;5071244;28;20085;-81
2024/03/23 08:18:05;;;;;;;21.90;15.00;;;4.30;99.90;;;;;;5071282;28;20048;-80
2024/03/23 08:20:30;;;;;;;26.63;15.73;;;4.50;99.90;;;;;;5072647;28;20032;-80
2024/03/23 08:22:56;;;;;;;22.17;15.40;;;4.50;99.90;;;;;;5077588;28;20416;-81
2024/03/23 08:25:22;;;;;;;25.83;16.05;;;4.50;99.90;;;;;;5071665;28;20028;-82
2024/03/23 08:27:48;;;;;;;21.35;13.02;;;4.50;99.90;;;;;;5071335;28;20024;-81
2024/03/23 08:30:14;;;;;;;24.73;17.52;;;4.60;99.90;;;;;;5077159;28;20032;-81
2024/03/23 08:32:40;;;;;;;19.40;15.75;;;4.50;99.90;;;;;;5091802;28;20488;-81
2024/03/23 08:35:07;;;;;;;18.67;10.80;;;4.60;99.90;;;;;;5088146;28;20047;-81
2024/03/23 08:37:32;;;;;;;19.42;15.38;;;4.60;99.90;;;;;;5085979;28;20362;-80
2024/03/23 08:39:59;;;;;;;24.92;15.38;;;4.60;99.90;;;;;;5093034;28;20085;-80
2024/03/23 08:42:25;;;;;;;23.67;15.75;;;4.50;99.90;;;;;;5092460;28;20016;-90
2024/03/23 08:44:50;;;;;;;24.25;16.38;;;4.70;99.90;;;;;;5091319;28;20054;-84
2024/03/23 08:47:17;;;;;;;19.50;12.48;;;4.80;99.90;;;;;;5093215;28;20516;-85
2024/03/23 08:49:44;;;;;;;24.40;16.63;;;4.80;99.90;;;;;;5093086;28;20032;-84
2024/03/23 08:52:10;;;;;;;17.60;13.25;;;4.80;99.90;;;;;;5076778;28;20480;-85
2024/03/23 08:54:36;;;;;;;18.52;13.30;;;4.90;99.90;;;;;;5088747;28;20388;-83
2024/03/23 08:57:02;;;;;;;16.40;13.68;;;4.90;99.90;;;;;;5092015;28;20027;-89
2024/03/23 08:59:28;;;;;;;24.38;16.23;;;4.90;99.90;;;;;;5082227;28;20035;-86
2024/03/23 09:01:54;;;;;;;20.38;12.80;;;4.90;99.90;;;;;;5093575;28;20016;-86
2024/03/23 09:04:21;;;;;;;18.58;13.18;;;5.00;99.90;;;;;;5093524;28;20099;-85
2024/03/23 09:06:47;;;;;;;15.88;12.23;;;4.90;99.90;;;;;;5082012;28;20088;-89
2024/03/23 09:09:20;;;;;;;22.98;14.60;;;4.90;99.90;;;;;;5094428;28;20051;-88
2024/03/23 09:11:46;;;;;;;20.27;14.52;;;4.90;99.90;;;;;;5084049;28;20031;-87
2024/03/23 09:14:12;;;;;;;19.40;14.13;;;4.90;99.90;;;;;;5094584;28;20551;-88
2024/03/23 09:16:37;;;;;;;21.63;15.43;;;5.10;99.90;;;;;;5097293;28;20054;-80
2024/03/23 09:19:03;;;;;;;19.25;14.25;;;5.10;99.90;;;;;;5096028;28;20055;-87
2024/03/23 09:21:29;;;;;;;26.77;15.70;;;5.00;99.90;;;;;;5095932;28;20028;-85
2024/03/23 09:23:55;;;;;;;16.55;12.73;;;5.00;99.90;;;;;;5094263;28;20063;-83
2024/03/23 09:26:20;;;;;;;18.80;14.23;;;5.10;99.90;;;;;;5096532;28;20032;-85
2024/03/23 09:28:49;;;;;;;20.77;15.93;;;5.00;99.90;;;;;;5082166;28;20035;-88
2024/03/23 09:31:18;;;;;;;23.58;13.95;;;5.10;99.90;;;;;;5077516;28;20397;-85
2024/03/23 09:33:44;;;;;;;19.70;14.02;;;5.10;99.90;;;;;;5092862;28;20027;-85
2024/03/23 09:36:10;;;;;;;19.08;14.23;;;5.20;99.90;;;;;;5081582;28;20033;-84
2024/03/23 09:38:36;;;;;;;20.05;14.13;;;5.30;99.90;;;;;;5079520;28;20026;-85
2024/03/23 09:41:08;;;;;;;18.48;13.85;;;5.30;99.90;;;;;;5092766;28;20028;-87
2024/03/23 09:43:34;;;;;;;18.15;12.60;;;5.40;99.90;;;;;;5078405;28;20091;-87
2024/03/23 09:46:02;;;;;;;20.98;15.45;;;5.40;99.90;;;;;;5077665;28;20078;-87
2024/03/23 09:48:28;;;;;;;;;;;5.50;99.90;;;;;;5079509;28;20017;-86
2024/03/23 09:50:54;;;;;;;20.15;12.52;;;5.50;99.90;;;;;;5092554;28;20293;-86
2024/03/23 09:53:20;;;;;;;17.25;13.00;;;5.40;99.90;;;;;;5091300;28;20016;-86
2024/03/23 09:55:46;;;;;;;15.90;12.88;;;5.40;99.90;;;;;;5084597;28;20044;-86
2024/03/23 09:58:16;;;;;;;19.38;15.18;;;5.40;99.90;;;;;;5089199;28;20039;-87
2024/03/23 10:00:42;;;;;;;18.45;11.05;;;5.40;99.90;;;;;;5091194;28;20017;-88
2024/03/23 10:03:10;;;;;;;17.15;12.85;;;5.50;99.90;;;;;;5089417;28;20024;-87
2024/03/23 10:05:37;;;;;;;18.88;13.90;;;5.40;99.90;;;;;;5076963;28;20016;-88
2024/03/23 10:08:14;;;;;;;17.00;12.65;;;5.40;99.90;;;;;;5086700;28;20048;-87
2024/03/23 10:10:44;;;;;;;18.83;13.55;;;5.40;99.90;;;;;;5091000;28;20032;-89
2024/03/23 10:13:10;;;;;;;13.88;10.35;;;5.40;99.90;;;;;;5079816;28;20028;-88
2024/03/23 10:15:36;;;;;;;19.70;12.25;;;5.50;99.90;;;;;;5077146;28;20033;-89
2024/03/23 10:18:24;;;;;;;16.80;12.27;;;5.40;99.90;;;;;;5097174;28;20350;-86
2024/03/23 10:21:05;;;;;;;15.52;12.45;;;5.40;99.90;;;;;;5091515;28;20083;-86
2024/03/23 10:23:31;;;;;;;16.02;11.98;;;5.40;99.90;;;;;;5079241;28;20078;-87
2024/03/23 10:26:27;;;;;;;17.65;12.27;;;5.50;99.90;;;;;;5081985;28;20432;-86
2024/03/23 10:29:03;;;;;;;20.42;12.80;;;5.40;99.90;;;;;;5083574;28;20040;-86
2024/03/23 10:31:31;;;;;;;20.38;12.98;;;5.40;99.90;;;;;;5092242;28;20074;-86
2024/03/23 10:34:00;;;;;;;21.67;14.75;;;5.40;99.90;;;;;;5099801;28;20061;-86
2024/03/23 10:36:28;;;;;;;21.20;15.07;;;5.40;99.90;;;;;;5080926;28;20035;-90
2024/03/23 10:39:00;;;;;;;27.13;19.13;;;5.50;99.90;;;;;;5095202;28;20020;-88
2024/03/23 10:41:31;;;;;;;20.42;16.23;;;5.60;99.90;;;;;;5078009;28;20110;-89
2024/03/23 10:44:00;;;;;;;21.42;16.02;;;5.60;99.90;;;;;;5089134;28;20024;-87
2024/03/23 10:46:41;;;;;;;19.55;14.43;;;5.70;99.90;;;;;;5080614;28;20431;-87
2024/03/23 10:49:12;;;;;;;21.33;15.07;;;5.80;99.90;;;;;;5081303;28;20064;-88
2024/03/23 10:51:38;;;;;;;15.18;11.60;;;5.90;99.90;;;;;;5101119;28;20392;-89
2024/03/23 10:54:13;;;;;;;21.17;14.43;;;5.90;99.90;;;;;;5091533;28;20021;-89
2024/03/23 10:56:40;;;;;;;19.10;14.45;;;5.90;99.90;;;;;;5094082;28;20016;-89
2024/03/23 10:59:07;;;;;;;;;;;5.90;99.90;;;;;;5085506;28;20048;-87
2024/03/23 11:01:33;;;;;;;17.77;14.20;;;5.90;99.90;;;;;;5093118;28;19904;-85
2024/03/23 11:03:59;;;;;;;17.48;13.38;;;5.80;99.90;;;;;;5073852;28;20096;-82
2024/03/23 11:06:43;;;;;;;19.63;14.93;;;5.90;99.90;;;;;;5082199;28;20553;-83
2024/03/23 11:09:37;;;;;;;19.20;14.27;;;5.90;99.90;;;;;;5082094;28;20127;-82
2024/03/23 11:12:31;;;;;;;;;;;;;;;;;;;;;
2024/03/23 11:15:05;;;;;;;17.48;13.75;;;6.10;99.90;;;;;;5081576;28;20035;-82
2024/03/23 11:17:36;;;;;;;19.35;14.23;;;6.20;99.90;;;;;;5073114;28;20028;-80
2024/03/23 11:20:05;;;;;;;22.13;14.77;;;6.20;99.90;;;;;;5082505;28;20052;-81
2024/03/23 11:22:42;;;;;;;19.60;14.38;;;6.20;99.90;;;;;;5071339;28;20025;-81
2024/03/23 11:25:23;;;;;;;20.38;13.52;;;6.30;99.90;;;;;;5072374;28;20066;-81
2024/03/23 11:27:58;;;;;;;19.77;14.60;;;6.30;99.90;;;;;;5072480;28;20017;-82
2024/03/23 11:30:37;;;;;;;16.20;12.63;;;6.40;99.90;;;;;;5079974;28;20028;-81
2024/03/23 11:33:06;;;;;;;20.83;15.20;;;6.30;99.90;;;;;;5083897;28;20020;-83
2024/03/23 11:35:44;;;;;;;22.45;14.30;;;6.30;99.90;;;;;;5077567;28;20492;-83
2024/03/23 11:38:17;;;;;;;17.27;14.50;;;6.30;99.90;;;;;;5083770;28;20133;-84
2024/03/23 11:40:51;;;;;;;18.58;13.77;;;6.30;99.90;;;;;;5079740;28;20096;-86
2024/03/23 11:43:22;;;;;;;19.65;13.57;;;6.30;99.90;;;;;;5087813;28;20490;-85
2024/03/23 11:45:52;;;;;;;19.33;14.38;;;6.30;99.90;;;;;;5085402;28;20131;-85
2024/03/23 11:48:20;;;;;;;26.42;17.02;;;6.30;99.90;;;;;;5080996;28;20026;-85
2024/03/23 11:50:51;;;;;;;19.85;14.57;;;6.40;99.90;;;;;;5075997;28;20043;-85
2024/03/23 11:53:18;;;;;;;21.77;16.73;;;6.40;99.90;;;;;;5083871;28;20035;-84
2024/03/23 11:55:47;;;;;;;23.33;16.05;;;6.40;99.90;;;;;;5082581;28;20017;-85
2024/03/23 11:58:14;;;;;;;19.42;15.65;;;6.40;99.90;;;;;;5086357;28;20030;-83
2024/03/23 12:00:40;;;;;;;22.33;16.67;;;6.40;99.90;;;;;;5081641;28;20013;-85
2024/03/23 12:03:07;;;;;;;21.13;15.68;;;6.30;99.90;;;;;;5080133;28;20085;-83
2024/03/23 12:05:33;;;;;;;26.58;17.60;;;6.30;99.90;;;;;;5074192;28;20020;-83
2024/03/23 12:08:30;;;;;;;24.57;17.27;;;6.30;99.90;;;;;;5088318;28;20469;-85
2024/03/23 12:11:13;;;;;;;22.60;16.13;;;6.30;99.90;;;;;;5083214;28;20033;-84
2024/03/23 12:13:42;;;;;;;26.13;18.27;;;6.30;99.90;;;;;;5087449;28;20043;-84
2024/03/23 12:16:12;;;;;;;27.67;18.35;;;6.20;99.90;;;;;;5082308;28;20024;-83
2024/03/23 12:18:42;;;;;;;24.52;18.92;;;6.20;99.90;;;;;;5092885;28;20372;-83
2024/03/23 12:21:08;;;;;;;22.10;16.75;;;6.20;99.90;;;;;;5083279;28;20549;-86
2024/03/23 12:23:35;;;;;;;26.23;17.10;;;6.20;99.90;;;;;;5093355;28;20131;-85
2024/03/23 12:26:01;;;;;;;26.33;17.73;;;6.10;99.90;;;;;;5083423;28;20059;-83
2024/03/23 12:28:27;;;;;;;26.77;18.10;;;6.10;99.90;;;;;;5075904;28;20035;-84
2024/03/23 12:30:56;;;;;;;26.05;18.20;;;6.10;99.90;;;;;;5086686;28;20028;-84
2024/03/23 12:33:22;;;;;;;29.33;20.05;;;6.10;99.90;;;;;;5086084;28;20104;-84
2024/03/23 12:35:48;;;;;;;30.63;20.20;;;6.20;99.90;;;;;;5079615;28;20434;-82
2024/03/23 12:38:14;;;;;;;27.60;21.05;;;6.10;99.90;;;;;;5080437;28;21664;-87
2024/03/23 12:40:41;;;;;;;23.30;16.35;;;6.20;99.90;;;;;;5081269;28;20035;-87